Time;durP1;ratioP1;P1;durP2;ratioP2;P2;SDS_P1;SDS_P2;PMS_P1;PMS_P2;Temp;Humidity;BMP_temperature;BMP_pressure;BME280_temperature;BME280_humidity;BME280_pressure;Samples;Min_cycle;Max_cycle;Signal;HPM_P1;HPM_P2
2022/11/14 00:02:07;;;;;;;7.03;3.58;;;10.50;49.20;;;;;;4962897;28;20054;-51
2022/11/14 00:04:34;;;;;;;10.13;4.93;;;10.50;49.20;;;;;;4962637;28;20062;-54
2022/11/14 00:07:01;;;;;;;7.72;4.63;;;10.50;49.20;;;;;;4967671;28;20055;-55
2022/11/14 00:09:30;;;;;;;8.30;4.88;;;10.50;49.20;;;;;;4959971;28;20046;-46
2022/11/14 00:11:57;;;;;;;7.78;4.78;;;10.40;49.20;;;;;;4960103;28;20453;-54
2022/11/14 00:14:24;;;;;;;8.32;4.90;;;10.40;49.20;;;;;;4963156;28;20054;-51
2022/11/14 00:16:51;;;;;;;9.43;5.65;;;10.40;49.20;;;;;;4960739;28;20422;-45
2022/11/14 00:19:19;;;;;;;6.65;4.38;;;10.40;49.20;;;;;;4967816;28;20050;-47
2022/11/14 00:21:46;;;;;;;10.50;4.75;;;10.40;49.20;;;;;;4964371;28;20100;-51
2022/11/14 00:24:13;;;;;;;8.25;5.22;;;10.40;49.20;;;;;;4969872;28;20387;-51
2022/11/14 00:26:42;;;;;;;7.65;4.85;;;10.40;49.10;;;;;;4976221;28;20061;-51
2022/11/14 00:29:11;;;;;;;8.35;4.53;;;10.30;49.10;;;;;;4957845;28;20465;-49
2022/11/14 00:31:38;;;;;;;6.88;4.57;;;10.30;49.10;;;;;;4962473;28;20545;-54
2022/11/14 00:34:06;;;;;;;11.25;5.60;;;10.30;49.20;;;;;;4963209;28;20058;-53
2022/11/14 00:36:33;;;;;;;7.63;4.70;;;10.20;49.20;;;;;;4961281;28;20058;-54
2022/11/14 00:39:00;;;;;;;8.52;4.82;;;10.20;49.20;;;;;;4959379;28;20046;-54
2022/11/14 00:41:27;;;;;;;7.13;4.60;;;10.20;49.30;;;;;;4963612;28;20064;-54
2022/11/14 00:43:56;;;;;;;7.95;5.07;;;10.20;49.40;;;;;;4960240;28;20166;-48
2022/11/14 00:46:23;;;;;;;7.63;4.68;;;10.10;49.50;;;;;;4959644;28;20051;-54
2022/11/14 00:48:50;;;;;;;8.98;5.28;;;10.20;49.60;;;;;;4962143;28;20058;-54
2022/11/14 00:51:18;;;;;;;9.15;5.07;;;10.10;49.70;;;;;;4960733;28;20046;-50
2022/11/14 00:53:45;;;;;;;10.02;4.93;;;10.10;49.80;;;;;;4962253;28;20081;-47
2022/11/14 00:56:12;;;;;;;8.70;4.90;;;10.10;49.90;;;;;;4963041;28;20065;-54
2022/11/14 00:58:39;;;;;;;8.63;4.97;;;10.00;50.00;;;;;;4966427;28;20547;-55
2022/11/14 01:01:08;;;;;;;7.88;4.80;;;10.10;50.20;;;;;;4967898;28;20403;-54
2022/11/14 01:03:35;;;;;;;10.02;4.70;;;10.00;50.30;;;;;;4962096;28;20453;-48
2022/11/14 01:06:05;;;;;;;9.60;4.95;;;10.00;50.40;;;;;;4959258;28;20062;-54
2022/11/14 01:08:32;;;;;;;6.95;4.53;;;10.00;50.50;;;;;;4956429;28;20058;-55
2022/11/14 01:11:00;;;;;;;7.63;4.63;;;10.00;50.50;;;;;;4962040;28;21057;-50
2022/11/14 01:13:31;;;;;;;6.82;4.50;;;10.00;50.50;;;;;;4962386;28;20054;-53
2022/11/14 01:16:01;;;;;;;9.00;5.15;;;10.00;50.60;;;;;;4964620;28;20065;-54
2022/11/14 01:18:29;;;;;;;9.75;4.65;;;10.00;50.70;;;;;;4961369;28;20062;-51
2022/11/14 01:20:57;;;;;;;9.32;4.93;;;10.00;50.60;;;;;;4966821;28;20679;-51
2022/11/14 01:23:24;;;;;;;9.10;4.53;;;10.00;50.60;;;;;;4962189;28;20410;-55
2022/11/14 01:25:51;;;;;;;7.88;4.07;;;10.00;50.60;;;;;;4959314;28;20046;-55
2022/11/14 01:28:19;;;;;;;11.70;4.63;;;10.00;50.60;;;;;;4962989;28;20073;-55
2022/11/14 01:30:46;;;;;;;9.48;5.40;;;10.00;50.60;;;;;;4964809;28;20062;-48
2022/11/14 01:33:14;;;;;;;8.77;4.68;;;9.90;50.60;;;;;;4961011;28;20507;-51
2022/11/14 01:35:42;;;;;;;8.50;4.93;;;9.90;50.70;;;;;;4961745;28;20065;-50
2022/11/14 01:38:13;;;;;;;9.13;4.75;;;9.90;50.70;;;;;;4959736;28;21333;-54
2022/11/14 01:40:42;;;;;;;9.90;4.75;;;9.90;50.70;;;;;;4961686;28;20054;-55
2022/11/14 01:43:26;;;;;;;8.77;4.78;;;9.90;50.80;;;;;;4968390;28;20054;-52
2022/11/14 01:46:00;;;;;;;7.60;4.30;;;9.90;50.90;;;;;;4962298;28;20053;-51
2022/11/14 01:48:34;;;;;;;7.30;4.15;;;9.90;50.90;;;;;;4959869;28;20066;-51
2022/11/14 01:51:10;;;;;;;8.13;4.45;;;9.90;50.90;;;;;;4958215;28;20532;-52
2022/11/14 01:53:37;;;;;;;6.57;4.05;;;9.90;50.90;;;;;;4958745;28;20063;-54
2022/11/14 01:56:07;;;;;;;7.63;4.47;;;9.90;51.00;;;;;;4961626;28;20487;-54
2022/11/14 01:58:37;;;;;;;8.68;4.20;;;9.90;51.10;;;;;;4967943;28;20483;-54
2022/11/14 02:01:04;;;;;;;7.35;4.10;;;9.90;51.10;;;;;;4960797;28;20058;-48
2022/11/14 02:03:33;;;;;;;7.82;4.30;;;9.90;51.20;;;;;;4959303;28;20050;-54
2022/11/14 02:06:03;;;;;;;9.27;4.45;;;9.80;51.20;;;;;;4962725;28;20409;-54
2022/11/14 02:08:31;;;;;;;5.65;3.88;;;9.90;51.40;;;;;;4969498;28;20498;-53
2022/11/14 02:10:58;;;;;;;6.50;3.95;;;9.80;51.30;;;;;;4997199;28;20069;-50
2022/11/14 02:13:25;;;;;;;6.32;4.20;;;9.90;51.40;;;;;;4978411;28;20073;-51
2022/11/14 02:15:52;;;;;;;7.20;3.90;;;9.90;51.40;;;;;;4973629;28;20054;-48
2022/11/14 02:18:20;;;;;;;7.30;4.07;;;9.90;51.40;;;;;;4972450;28;20065;-49
2022/11/14 02:20:48;;;;;;;7.60;4.82;;;9.90;51.40;;;;;;4967951;28;20058;-52
2022/11/14 02:23:25;;;;;;;6.88;4.07;;;9.90;51.30;;;;;;4975451;28;20069;-49
2022/11/14 02:25:53;;;;;;;5.72;3.60;;;9.90;51.40;;;;;;4968686;28;20506;-46
2022/11/14 02:28:20;;;;;;;7.43;4.40;;;9.90;51.30;;;;;;4969022;28;20739;-51
2022/11/14 02:30:48;;;;;;;6.80;4.30;;;10.00;51.30;;;;;;4970139;28;20126;-54
2022/11/14 02:33:15;;;;;;;7.97;4.53;;;9.90;51.20;;;;;;4969489;28;20055;-54
2022/11/14 02:35:43;;;;;;;5.93;3.92;;;9.90;51.20;;;;;;4973885;28;20057;-54
2022/11/14 02:38:12;;;;;;;7.13;4.15;;;9.90;51.20;;;;;;4963837;28;20057;-50
2022/11/14 02:40:39;;;;;;;7.43;4.05;;;10.00;51.30;;;;;;4964901;28;21697;-51
2022/11/14 02:43:06;;;;;;;8.63;4.53;;;9.90;51.20;;;;;;4964682;28;20078;-46
2022/11/14 02:45:33;;;;;;;7.45;3.78;;;9.90;51.20;;;;;;4968121;28;20454;-48
2022/11/14 02:48:01;;;;;;;7.20;4.20;;;9.90;51.10;;;;;;4976735;28;20046;-50
2022/11/14 02:50:28;;;;;;;5.65;4.00;;;9.90;51.10;;;;;;4960803;28;20054;-52
2022/11/14 02:52:56;;;;;;;5.78;4.07;;;9.90;51.20;;;;;;4967532;28;20053;-53
2022/11/14 02:55:24;;;;;;;6.38;4.20;;;9.90;51.10;;;;;;4965160;28;20069;-54
2022/11/14 02:57:51;;;;;;;8.82;4.75;;;9.90;51.20;;;;;;4971046;28;20054;-54
2022/11/14 03:03:41;;;;;;;7.20;3.72;;;9.90;51.30;;;;;;4988856;28;20034;-54
2022/11/14 03:06:08;;;;;;;6.20;4.03;;;9.90;51.20;;;;;;4967224;28;20490;-54
2022/11/14 03:08:35;;;;;;;6.70;3.80;;;9.80;51.20;;;;;;4967177;28;20494;-51
2022/11/14 03:11:06;;;;;;;7.38;4.28;;;9.80;51.20;;;;;;4962229;28;20054;-55
2022/11/14 03:13:34;;;;;;;6.65;3.95;;;9.80;51.30;;;;;;4974341;28;20065;-53
2022/11/14 03:16:06;;;;;;;6.03;3.85;;;9.80;51.30;;;;;;4964296;28;20682;-54
2022/11/14 03:18:33;;;;;;;6.82;3.78;;;9.80;51.30;;;;;;4962824;28;20062;-50
2022/11/14 03:21:05;;;;;;;6.63;4.28;;;9.80;51.30;;;;;;4964093;28;21554;-46
2022/11/14 03:23:32;;;;;;;8.77;4.30;;;9.80;51.40;;;;;;4963285;28;20055;-53
2022/11/14 03:26:01;;;;;;;5.95;3.88;;;9.70;51.30;;;;;;4971969;28;20054;-53
2022/11/14 03:28:30;;;;;;;6.65;3.97;;;9.70;51.30;;;;;;4995350;28;20076;-55
2022/11/14 03:31:00;;;;;;;8.02;4.68;;;9.70;51.30;;;;;;4984919;28;20061;-46
2022/11/14 03:33:27;;;;;;;8.20;4.15;;;9.70;51.40;;;;;;4987965;28;20066;-46
2022/11/14 03:35:54;;;;;;;5.03;3.78;;;9.70;51.40;;;;;;4994434;28;20076;-44
2022/11/14 03:38:22;;;;;;;7.47;4.20;;;9.70;51.40;;;;;;4992348;28;20500;-45
2022/11/14 03:40:50;;;;;;;7.95;4.65;;;9.70;51.50;;;;;;4988365;28;20050;-41
2022/11/14 03:43:17;;;;;;;7.30;4.35;;;9.70;51.50;;;;;;5003293;28;20045;-41
2022/11/14 03:45:47;;;;;;;6.30;4.13;;;9.60;51.50;;;;;;5002532;28;20084;-43
2022/11/14 03:48:14;;;;;;;8.18;4.57;;;9.60;51.60;;;;;;4984786;28;20061;-55
2022/11/14 03:50:42;;;;;;;7.65;4.20;;;9.60;51.60;;;;;;4981713;28;20063;-55
2022/11/14 03:53:10;;;;;;;8.60;4.78;;;9.60;51.60;;;;;;4996329;28;20061;-55
2022/11/14 03:55:37;;;;;;;8.35;4.90;;;9.60;51.70;;;;;;5002362;28;20060;-55
2022/11/14 03:58:05;;;;;;;9.73;4.78;;;9.60;51.80;;;;;;5001711;28;20474;-52
2022/11/14 04:00:32;;;;;;;8.93;5.13;;;9.60;51.90;;;;;;5003226;28;20050;-55
2022/11/14 04:03:00;;;;;;;9.32;4.43;;;9.60;52.00;;;;;;5003894;28;20054;-55
2022/11/14 04:05:28;;;;;;;7.80;4.15;;;9.60;52.00;;;;;;4994112;28;20418;-55
2022/11/14 04:07:55;;;;;;;6.93;4.10;;;9.60;52.10;;;;;;5003189;28;20065;-55
2022/11/14 04:10:22;;;;;;;8.77;4.93;;;9.50;52.00;;;;;;5003052;28;20061;-55
2022/11/14 04:12:50;;;;;;;6.93;4.55;;;9.50;52.10;;;;;;4992396;28;20128;-55
2022/11/14 04:15:18;;;;;;;7.32;4.13;;;9.50;52.10;;;;;;4995690;28;20066;-54
2022/11/14 04:17:46;;;;;;;6.40;4.05;;;9.50;52.10;;;;;;5001360;28;20058;-55
2022/11/14 04:20:15;;;;;;;7.82;4.50;;;9.50;52.20;;;;;;4987016;28;20454;-55
2022/11/14 04:22:42;;;;;;;8.20;4.15;;;9.50;52.20;;;;;;4988158;28;20049;-53
2022/11/14 04:25:10;;;;;;;7.95;4.70;;;9.50;52.30;;;;;;4997590;28;20057;-51
2022/11/14 04:27:37;;;;;;;7.78;4.80;;;9.50;52.30;;;;;;5001653;28;20056;-52
2022/11/14 04:30:05;;;;;;;11.60;5.63;;;9.50;52.40;;;;;;4998101;28;20414;-54
2022/11/14 04:32:32;;;;;;;14.63;5.90;;;9.50;52.40;;;;;;4987754;28;20361;-55
2022/11/14 04:35:00;;;;;;;7.93;4.90;;;9.50;52.40;;;;;;4993638;28;20077;-55
2022/11/14 04:37:28;;;;;;;8.43;4.88;;;9.50;52.40;;;;;;4999919;28;20057;-55
2022/11/14 04:39:59;;;;;;;8.38;5.07;;;9.50;52.50;;;;;;4992193;28;20061;-53
2022/11/14 04:42:27;;;;;;;7.57;4.70;;;9.50;52.60;;;;;;4999074;28;20050;-55
2022/11/14 04:44:54;;;;;;;8.65;5.32;;;9.50;52.60;;;;;;4993922;28;20065;-55
2022/11/14 04:47:21;;;;;;;9.10;5.18;;;9.50;52.60;;;;;;4988594;28;20060;-53
2022/11/14 04:49:48;;;;;;;9.90;5.68;;;9.50;52.70;;;;;;5003789;28;20057;-55
2022/11/14 04:52:15;;;;;;;9.60;5.60;;;9.50;52.70;;;;;;5003658;28;20077;-55
2022/11/14 04:54:45;;;;;;;8.40;5.32;;;9.50;52.70;;;;;;4994379;28;20053;-55
2022/11/14 04:57:12;;;;;;;9.38;5.25;;;9.50;52.80;;;;;;5000353;28;20046;-54
2022/11/14 04:59:39;;;;;;;9.55;5.75;;;9.50;52.80;;;;;;5001704;28;20509;-55
2022/11/14 05:02:06;;;;;;;9.30;5.93;;;9.50;52.80;;;;;;4990558;28;20058;-55
2022/11/14 05:04:33;;;;;;;8.98;5.80;;;9.50;52.90;;;;;;4998086;28;20061;-54
2022/11/14 05:07:01;;;;;;;10.85;6.13;;;9.50;52.90;;;;;;4995495;28;20083;-55
2022/11/14 05:09:28;;;;;;;7.85;5.47;;;9.50;52.90;;;;;;4989380;28;20058;-55
2022/11/14 05:11:56;;;;;;;12.02;6.60;;;9.50;52.90;;;;;;4988383;28;20050;-55
2022/11/14 05:14:23;;;;;;;9.07;5.63;;;9.50;53.00;;;;;;5001333;28;20423;-54
2022/11/14 05:16:51;;;;;;;11.15;6.00;;;9.50;53.00;;;;;;4982641;28;20175;-52
2022/11/14 05:19:18;;;;;;;11.88;7.10;;;9.50;53.00;;;;;;4987595;28;20062;-55
2022/11/14 05:21:45;;;;;;;12.32;6.55;;;9.50;53.00;;;;;;4980982;28;20494;-54
2022/11/14 05:24:12;;;;;;;7.90;5.25;;;9.50;53.10;;;;;;4987972;28;20081;-53
2022/11/14 05:26:39;;;;;;;9.55;5.70;;;9.50;53.10;;;;;;4997624;28;20054;-55
2022/11/14 05:29:08;;;;;;;12.38;6.15;;;9.50;53.00;;;;;;5002968;28;20494;-55
2022/11/14 05:31:35;;;;;;;10.80;6.15;;;9.50;53.10;;;;;;5001391;28;20046;-55
2022/11/14 05:34:02;;;;;;;11.30;6.20;;;9.50;53.10;;;;;;4995891;28;20051;-55
2022/11/14 05:36:29;;;;;;;8.57;5.85;;;9.50;53.20;;;;;;4996264;28;20055;-55
2022/11/14 05:38:56;;;;;;;8.40;5.65;;;9.50;53.20;;;;;;4994608;28;20065;-50
2022/11/14 05:41:23;;;;;;;10.50;6.15;;;9.50;53.20;;;;;;4994121;28;20062;-55
2022/11/14 05:43:51;;;;;;;10.85;6.10;;;9.50;53.20;;;;;;5001774;28;20050;-50
2022/11/14 05:46:19;;;;;;;12.38;6.68;;;9.50;53.20;;;;;;5004659;28;20062;-55
2022/11/14 05:48:46;;;;;;;10.80;6.32;;;9.50;53.20;;;;;;5000236;28;20058;-55
2022/11/14 05:51:14;;;;;;;11.30;6.70;;;9.50;53.20;;;;;;4999202;28;20545;-55
2022/11/14 05:53:41;;;;;;;9.05;5.72;;;9.50;53.20;;;;;;4998574;28;20430;-55
2022/11/14 05:56:14;;;;;;;8.75;5.53;;;9.50;53.10;;;;;;5007244;28;20502;-55
2022/11/14 05:58:41;;;;;;;11.05;5.90;;;9.50;53.10;;;;;;5002486;28;20061;-55
2022/11/14 06:01:11;;;;;;;10.05;6.35;;;9.50;53.10;;;;;;4997816;28;20468;-55
2022/11/14 06:03:41;;;;;;;13.35;6.50;;;9.50;53.10;;;;;;4991344;28;20054;-54
2022/11/14 06:06:10;;;;;;;10.05;6.05;;;9.50;53.10;;;;;;4992284;28;20058;-55
2022/11/14 06:08:38;;;;;;;14.88;6.40;;;9.40;53.10;;;;;;5005271;28;20419;-54
2022/11/14 06:11:07;;;;;;;12.10;6.50;;;9.40;53.10;;;;;;5003503;28;20046;-54
2022/11/14 06:13:35;;;;;;;10.93;6.28;;;9.40;53.20;;;;;;4995062;28;20046;-52
2022/11/14 06:16:04;;;;;;;34.42;16.42;;;9.40;53.20;;;;;;5002206;28;20056;-55
2022/11/14 06:18:32;;;;;;;47.50;20.63;;;9.40;53.20;;;;;;4997855;28;20058;-48
2022/11/14 06:21:01;;;;;;;21.67;11.25;;;9.40;53.30;;;;;;5005196;28;20046;-55
2022/11/14 06:23:29;;;;;;;15.90;8.40;;;9.40;53.30;;;;;;5003541;28;20573;-51
2022/11/14 06:26:00;;;;;;;15.75;7.72;;;9.40;53.40;;;;;;4993402;28;20065;-55
2022/11/14 06:28:27;;;;;;;13.15;7.65;;;9.40;54.00;;;;;;5004891;28;20394;-54
2022/11/14 06:30:58;;;;;;;13.20;8.00;;;9.50;53.60;;;;;;4988393;28;20573;-49
2022/11/14 06:33:25;;;;;;;15.07;8.48;;;9.50;53.60;;;;;;4999102;28;20049;-55
2022/11/14 06:35:57;;;;;;;13.15;7.43;;;9.50;53.60;;;;;;4994230;28;20065;-55
2022/11/14 06:39:00;;;;;;;11.27;7.18;;;9.50;53.70;;;;;;5000075;28;20069;-55
2022/11/14 06:41:30;;;;;;;12.35;7.63;;;9.50;53.80;;;;;;5006784;28;20058;-55
2022/11/14 06:43:59;;;;;;;13.30;7.80;;;9.50;53.60;;;;;;5010491;28;20049;-55
2022/11/14 06:46:26;;;;;;;21.40;12.18;;;9.60;53.70;;;;;;5003979;28;20061;-55
2022/11/14 06:59:41;;;;;;;15.52;9.45;;;9.60;54.00;;;;;;4990391;28;20041;-49
2022/11/14 07:03:04;;;;;;;15.35;9.60;;;9.60;53.80;;;;;;5005536;28;20056;-55
2022/11/14 07:06:07;;;;;;;17.95;9.85;;;9.60;54.00;;;;;;4939029;29;20052;-51
2022/11/14 07:08:35;;;;;;;17.45;9.70;;;9.70;54.00;;;;;;4961755;28;20051;-55
2022/11/14 07:11:03;;;;;;;20.42;11.48;;;9.70;53.90;;;;;;4987663;28;20053;-55
2022/11/14 07:13:31;;;;;;;19.83;10.95;;;9.70;54.10;;;;;;4993911;28;20053;-53
2022/11/14 07:16:01;;;;;;;19.83;11.48;;;9.70;54.10;;;;;;4971459;28;20054;-49
2022/11/14 07:18:30;;;;;;;17.88;10.40;;;9.70;54.20;;;;;;4984295;28;20054;-54
2022/11/14 07:20:58;;;;;;;18.52;10.65;;;9.70;54.20;;;;;;4986966;28;20386;-52
2022/11/14 07:23:26;;;;;;;21.00;12.40;;;9.70;54.20;;;;;;4993738;28;20133;-54
2022/11/14 07:25:53;;;;;;;22.05;12.30;;;9.70;54.30;;;;;;4982706;28;20058;-51
2022/11/14 07:28:21;;;;;;;23.40;12.32;;;9.70;54.30;;;;;;4972879;28;20410;-47
2022/11/14 07:30:48;;;;;;;24.80;12.80;;;9.70;54.30;;;;;;4971672;28;20050;-55
2022/11/14 07:33:17;;;;;;;24.58;13.20;;;9.70;54.40;;;;;;4973227;28;20061;-55
2022/11/14 07:35:45;;;;;;;21.67;12.00;;;9.70;54.50;;;;;;4975494;28;20506;-51
2022/11/14 07:38:13;;;;;;;25.30;14.25;;;9.70;54.50;;;;;;4972221;28;20058;-56
2022/11/14 07:40:41;;;;;;;27.67;15.00;;;9.80;54.70;;;;;;4973871;28;20074;-56
2022/11/14 07:43:08;;;;;;;27.73;14.45;;;9.80;54.70;;;;;;4975836;28;20050;-55
2022/11/14 07:45:36;;;;;;;27.27;14.75;;;9.80;54.80;;;;;;4971552;28;20062;-54
2022/11/14 07:48:04;;;;;;;29.58;15.95;;;9.80;54.90;;;;;;4970995;28;20510;-56
2022/11/14 07:50:33;;;;;;;28.83;14.55;;;9.90;55.00;;;;;;4971900;28;20418;-53
2022/11/14 07:53:00;;;;;;;33.08;16.38;;;9.90;55.00;;;;;;4970355;28;20058;-50
2022/11/14 07:55:28;;;;;;;28.40;15.02;;;9.90;55.00;;;;;;4973431;28;20062;-51
2022/11/14 07:57:59;;;;;;;30.50;15.73;;;9.90;55.00;;;;;;4971375;28;20062;-53
2022/11/14 08:00:27;;;;;;;31.98;16.58;;;9.90;55.10;;;;;;4975882;28;20054;-55
2022/11/14 08:02:55;;;;;;;36.78;18.45;;;9.90;55.20;;;;;;4997313;22;20050;-54
2022/11/14 08:05:22;;;;;;;30.05;16.88;;;10.00;55.30;;;;;;5013556;28;20057;-55
2022/11/14 08:07:52;;;;;;;34.75;18.15;;;10.00;55.40;;;;;;5014801;28;20076;-55
2022/11/14 08:10:20;;;;;;;37.83;18.67;;;10.00;55.50;;;;;;5008445;28;20057;-49
2022/11/14 08:12:48;;;;;;;38.67;18.67;;;10.00;55.50;;;;;;5014897;28;20054;-55
2022/11/14 08:15:15;;;;;;;41.13;19.85;;;10.00;55.50;;;;;;5023649;28;20053;-54
2022/11/14 08:17:42;;;;;;;37.35;19.08;;;10.00;55.70;;;;;;5023210;28;20049;-55
2022/11/14 08:20:11;;;;;;;39.00;18.48;;;10.10;55.70;;;;;;5022018;28;20485;-55
2022/11/14 08:22:38;;;;;;;39.95;19.58;;;10.10;55.70;;;;;;5012960;28;20512;-55
2022/11/14 08:25:08;;;;;;;39.90;19.40;;;10.10;55.70;;;;;;5011032;28;20061;-52
2022/11/14 08:27:35;;;;;;;41.10;20.45;;;10.20;55.80;;;;;;5012828;28;20485;-50
2022/11/14 08:30:03;;;;;;;42.80;20.42;;;10.20;55.90;;;;;;5009057;28;20061;-49
2022/11/14 08:32:31;;;;;;;41.33;20.00;;;10.20;55.90;;;;;;5012524;28;20060;-52
2022/11/14 08:34:58;;;;;;;38.67;19.10;;;10.20;56.00;;;;;;5008836;28;20053;-54
2022/11/14 08:37:25;;;;;;;38.33;18.58;;;10.20;56.00;;;;;;5010483;28;20076;-54
2022/11/14 08:39:52;;;;;;;36.25;18.17;;;10.20;55.90;;;;;;5011357;28;20053;-53
2022/11/14 08:42:21;;;;;;;48.20;20.00;;;10.30;56.00;;;;;;5013584;28;20521;-56
2022/11/14 08:44:48;;;;;;;39.58;18.92;;;10.30;56.60;;;;;;5012383;28;20580;-56
2022/11/14 08:47:15;;;;;;;34.85;17.70;;;10.30;56.10;;;;;;5012095;28;20057;-54
2022/11/14 08:49:43;;;;;;;39.63;19.23;;;10.30;56.10;;;;;;5009311;28;20446;-55
2022/11/14 08:52:10;;;;;;;56.10;25.63;;;10.40;56.20;;;;;;5009301;28;20060;-51
2022/11/14 08:54:38;;;;;;;59.47;25.45;;;10.40;56.20;;;;;;5011778;28;20061;-52
2022/11/14 08:57:05;;;;;;;46.58;20.58;;;10.30;56.20;;;;;;5012761;28;20053;-54
2022/11/14 08:59:34;;;;;;;41.15;20.65;;;10.40;56.40;;;;;;5008925;28;20520;-55
2022/11/14 09:02:01;;;;;;;37.20;18.23;;;10.40;56.40;;;;;;5010608;28;20056;-53
2022/11/14 09:04:28;;;;;;;41.35;19.63;;;10.40;56.30;;;;;;5016689;28;20524;-52
2022/11/14 09:06:55;;;;;;;41.42;19.95;;;10.40;56.30;;;;;;5016822;28;20056;-53
2022/11/14 09:09:22;;;;;;;40.88;20.10;;;10.50;56.40;;;;;;5022113;28;20058;-56
2022/11/14 09:11:50;;;;;;;38.95;19.83;;;10.40;56.40;;;;;;5019618;28;20433;-56
2022/11/14 09:14:17;;;;;;;37.78;18.55;;;10.50;56.90;;;;;;5019003;28;20049;-53
2022/11/14 09:16:47;;;;;;;36.92;18.73;;;10.50;56.40;;;;;;5020974;28;20053;-55
2022/11/14 09:19:14;;;;;;;34.30;17.33;;;10.50;56.50;;;;;;5021363;28;20058;-49
2022/11/14 09:21:42;;;;;;;40.38;19.95;;;10.50;56.40;;;;;;5024648;28;20436;-52
2022/11/14 09:24:09;;;;;;;35.97;18.15;;;10.50;56.50;;;;;;5018200;28;20057;-55
2022/11/14 09:26:37;;;;;;;30.63;17.52;;;10.50;56.50;;;;;;5014085;28;20066;-50
2022/11/14 09:29:05;;;;;;;34.15;17.42;;;10.60;56.50;;;;;;5026514;28;20057;-50
2022/11/14 09:31:32;;;;;;;34.67;17.67;;;10.60;56.50;;;;;;5013071;28;20064;-51
2022/11/14 09:34:01;;;;;;;38.70;18.75;;;10.60;56.50;;;;;;5007597;28;20045;-56
2022/11/14 09:36:28;;;;;;;36.80;18.73;;;10.60;56.50;;;;;;5020811;28;20064;-48
2022/11/14 09:38:55;;;;;;;34.72;17.38;;;10.60;56.50;;;;;;5026192;28;20049;-50
2022/11/14 09:41:24;;;;;;;36.47;18.00;;;10.60;56.50;;;;;;5019069;28;20505;-49
2022/11/14 09:44:19;;;;;;;40.78;19.60;;;10.60;56.50;;;;;;5027549;28;20535;-56
2022/11/14 09:46:53;;;;;;;38.08;18.10;;;10.70;56.60;;;;;;5023898;28;20382;-52
2022/11/14 09:49:26;;;;;;;39.78;19.92;;;10.70;56.50;;;;;;5025866;28;20053;-52
2022/11/14 09:52:03;;;;;;;33.75;17.70;;;10.70;56.50;;;;;;5020673;28;20457;-52
2022/11/14 09:54:39;;;;;;;36.33;18.85;;;10.70;56.40;;;;;;5023925;28;20049;-54
2022/11/14 09:57:15;;;;;;;30.60;16.98;;;10.80;56.50;;;;;;5024634;28;20050;-55
2022/11/14 09:59:42;;;;;;;35.67;18.58;;;10.80;56.50;;;;;;5023513;28;20061;-53
2022/11/14 10:02:28;;;;;;;34.40;17.92;;;10.80;56.40;;;;;;5021883;28;20398;-47
2022/11/14 10:05:21;;;;;;;38.15;19.65;;;10.80;56.50;;;;;;5028223;28;20054;-51
2022/11/14 10:08:36;;;;;;;37.22;19.60;;;10.90;56.60;;;;;;5023130;28;20041;-45
2022/11/14 10:11:08;;;;;;;34.92;17.80;;;10.90;56.50;;;;;;4988820;28;20050;-53
2022/11/14 10:14:01;;;;;;;33.00;18.88;;;11.00;56.40;;;;;;5026285;28;20061;-53
2022/11/14 10:16:42;;;;;;;31.92;18.05;;;11.00;56.40;;;;;;5023252;28;20098;-51
2022/11/14 10:19:18;;;;;;;35.13;18.83;;;11.10;56.30;;;;;;5027553;28;20061;-54
2022/11/14 10:22:11;;;;;;;32.35;17.98;;;11.10;56.30;;;;;;5019598;28;20061;-50
2022/11/14 10:25:02;;;;;;;38.30;18.98;;;11.10;56.30;;;;;;5024311;28;20485;-53
2022/11/14 10:27:35;;;;;;;29.73;17.58;;;11.10;56.30;;;;;;5027451;28;20478;-48
2022/11/14 10:30:08;;;;;;;28.33;16.42;;;11.20;56.30;;;;;;5022489;28;20049;-50
2022/11/14 10:32:51;;;;;;;33.50;17.80;;;11.20;56.10;;;;;;5024430;28;20057;-53
2022/11/14 10:35:22;;;;;;;34.83;17.77;;;11.20;56.00;;;;;;5023899;28;20056;-54
2022/11/14 10:37:59;;;;;;;30.33;16.98;;;11.20;56.00;;;;;;5024932;28;20072;-52
2022/11/14 10:40:39;;;;;;;36.25;18.75;;;11.20;56.00;;;;;;5024212;28;20053;-52
2022/11/14 10:43:18;;;;;;;30.92;18.50;;;11.20;56.10;;;;;;5026087;28;20072;-52
2022/11/14 10:45:50;;;;;;;32.70;18.33;;;11.30;56.10;;;;;;5018061;28;20054;-52
2022/11/14 10:48:27;;;;;;;39.35;19.85;;;11.30;56.00;;;;;;5029874;28;20516;-51
2022/11/14 10:50:58;;;;;;;41.35;19.63;;;11.30;56.00;;;;;;5021347;28;20049;-51
2022/11/14 10:53:41;;;;;;;38.20;19.42;;;11.30;55.90;;;;;;5025414;28;20513;-50
2022/11/14 10:56:11;;;;;;;52.22;21.02;;;11.30;55.90;;;;;;5027587;28;20471;-46
2022/11/14 10:58:38;;;;;;;49.78;22.00;;;11.40;56.10;;;;;;5020395;28;20065;-52
2022/11/14 11:01:34;;;;;;;35.35;19.15;;;11.30;56.10;;;;;;5014428;28;20053;-51
2022/11/14 11:04:13;;;;;;;38.92;19.55;;;11.40;56.10;;;;;;5019617;28;20049;-49
2022/11/14 11:06:40;;;;;;;39.78;21.50;;;11.40;56.00;;;;;;5022198;28;20049;-49
2022/11/14 11:12:01;;;;;;;37.90;19.15;;;11.40;55.90;;;;;;5028421;28;20057;-52
2022/11/14 11:14:29;;;;;;;42.38;19.73;;;11.50;55.90;;;;;;5023538;28;20045;-51
2022/11/14 11:17:18;;;;;;;39.67;20.05;;;11.40;55.90;;;;;;5021343;28;20493;-45
2022/11/14 11:19:47;;;;;;;42.35;21.63;;;11.40;55.90;;;;;;5013964;28;20057;-53
2022/11/14 11:22:26;;;;;;;43.00;21.38;;;11.50;55.90;;;;;;5020922;28;20422;-52
2022/11/14 11:24:55;;;;;;;42.70;21.30;;;11.50;56.00;;;;;;5027683;28;20048;-49
2022/11/14 11:27:25;;;;;;;35.90;19.15;;;11.50;56.00;;;;;;5021384;28;20511;-50
2022/11/14 11:30:16;;;;;;;39.95;20.23;;;11.50;55.90;;;;;;5022760;28;20477;-51
2022/11/14 11:32:43;;;;;;;42.55;21.00;;;11.50;56.00;;;;;;5020663;28;20076;-49
2022/11/14 11:35:12;;;;;;;36.70;18.80;;;11.60;56.00;;;;;;5023797;28;20061;-51
2022/11/14 11:37:44;;;;;;;31.30;18.30;;;11.60;56.00;;;;;;5035098;28;20053;-50
2022/11/14 11:40:18;;;;;;;35.90;17.55;;;11.60;56.00;;;;;;5027276;28;20052;-45
2022/11/14 11:42:51;;;;;;;35.40;18.98;;;11.60;56.00;;;;;;5031142;28;20057;-51
2022/11/14 11:45:19;;;;;;;34.67;19.10;;;11.60;56.10;;;;;;5029234;28;20049;-53
2022/11/14 11:47:54;;;;;;;33.22;18.77;;;11.70;56.10;;;;;;5031882;28;20056;-54
2022/11/14 11:50:23;;;;;;;34.20;18.33;;;11.70;56.10;;;;;;5022411;28;20053;-48
2022/11/14 11:53:02;;;;;;;38.83;20.20;;;11.80;56.10;;;;;;5025133;28;20053;-48
2022/11/14 11:55:34;;;;;;;37.00;19.55;;;11.80;56.00;;;;;;5023919;28;20053;-52
2022/11/14 11:58:05;;;;;;;37.50;19.05;;;11.80;55.90;;;;;;5022883;28;20531;-52
2022/11/14 12:00:33;;;;;;;37.25;18.55;;;11.80;55.80;;;;;;5018261;28;20053;-54
2022/11/14 12:03:00;;;;;;;41.22;20.67;;;11.80;55.80;;;;;;5017896;28;20064;-54
2022/11/14 12:05:39;;;;;;;45.08;20.02;;;11.80;55.80;;;;;;5017360;28;20057;-50
2022/11/14 12:08:15;;;;;;;40.10;19.13;;;11.90;55.90;;;;;;5023916;28;20421;-52
2022/11/14 12:10:44;;;;;;;43.47;20.52;;;11.90;55.80;;;;;;5015607;28;20120;-49
2022/11/14 12:14:03;;;;;;;39.20;21.13;;;11.90;55.70;;;;;;5019870;28;20048;-51
2022/11/14 12:16:52;;;;;;;36.58;18.92;;;11.90;55.70;;;;;;4963432;28;20090;-53
2022/11/14 12:19:35;;;;;;;39.15;19.15;;;11.90;55.50;;;;;;4963272;28;20055;-48
2022/11/14 12:22:17;;;;;;;41.13;18.65;;;11.90;55.50;;;;;;5004200;28;20381;-53
2022/11/14 12:25:21;;;;;;;35.95;18.70;;;11.90;55.60;;;;;;5022634;28;20481;-50
2022/11/14 12:28:09;;;;;;;40.83;19.75;;;11.90;55.60;;;;;;4960316;28;20051;-54
2022/11/14 12:30:39;;;;;;;36.28;19.25;;;11.90;55.50;;;;;;5015562;28;21097;-49
2022/11/14 12:33:11;;;;;;;35.95;19.35;;;11.90;55.50;;;;;;5020132;28;20057;-53
2022/11/14 12:35:49;;;;;;;37.45;19.40;;;11.90;55.50;;;;;;5020787;28;20505;-48
2022/11/14 12:38:18;;;;;;;36.08;19.65;;;11.90;55.50;;;;;;5015471;28;20049;-52
2022/11/14 12:40:52;;;;;;;34.03;20.10;;;11.90;55.50;;;;;;5019400;28;20053;-47
2022/11/14 12:43:33;;;;;;;43.10;19.55;;;11.90;55.60;;;;;;5018681;28;20053;-54
2022/11/14 12:46:05;;;;;;;35.05;19.85;;;11.90;55.60;;;;;;5021814;28;20507;-51
2022/11/14 12:48:35;;;;;;;33.83;19.60;;;11.90;55.60;;;;;;5027435;28;20054;-53
2022/11/14 12:51:04;;;;;;;45.55;23.55;;;12.00;55.70;;;;;;5019191;28;20959;-51
2022/11/14 12:53:42;;;;;;;36.03;20.83;;;12.00;55.70;;;;;;5019040;28;20053;-53
2022/11/14 12:56:42;;;;;;;32.53;18.67;;;12.00;55.70;;;;;;5018518;28;20053;-50
2022/11/14 12:59:36;;;;;;;35.72;19.92;;;12.00;55.60;;;;;;5028921;28;20065;-47
2022/11/14 13:02:32;;;;;;;39.17;21.98;;;12.00;55.60;;;;;;5018206;28;20057;-52
2022/11/14 13:05:24;;;;;;;35.90;20.63;;;12.00;55.70;;;;;;5034649;23;20057;-52
2022/11/14 13:08:03;;;;;;;38.60;21.13;;;12.00;55.70;;;;;;5013459;28;20060;-52
2022/11/14 13:10:32;;;;;;;34.22;19.08;;;12.00;55.60;;;;;;5020370;28;20050;-49
2022/11/14 13:21:46;;;;;;;34.47;19.45;;;12.00;55.70;;;;;;5034742;28;20065;-50
2022/11/14 13:24:15;;;;;;;37.75;20.67;;;12.00;55.60;;;;;;5031020;28;20049;-50
2022/11/14 13:26:53;;;;;;;33.25;18.83;;;12.00;55.70;;;;;;5028960;28;20046;-48